Terminal Aerodrome Forecast
Issued by NWS Pueblo, CO

Home | Current Version | Previous Version | Text Only | Print | Product List | Glossary On
Versions: 1 2 3 4 5 6 7 8 9 10 11 12 13 14 15 16 17 18 19 20 21 22 23 24 25 26 27 28 29 30 31 32 33 34 35 36 37 38 39 40 41 42 43 44
000
FTUS45 KPUB 251535 AAB
TAFPUB
TAF AMD
KPUB 251535Z 2516/2612 VRB04KT P6SM FEW060
     FM251800 12007KT P6SM SCT060
     FM252300 10012KT P6SM VCTS SCT070CB BKN150
     FM260200 08014KT P6SM VCTS SCT050CB BKN100
     FM260600 06006KT P6SM BKN040=

USA.gov is the U.S. government's official web portal to all federal, state and local government web resources and services.